This is the latest recevied weather packets stored in our database for station/object SQ9NFI-4. If no packets are shown the sender has not sent any weather packets the latest 10 day(s).
| Time | Temp. | Humidity | Pressure | Rain* | Wind** | Luminosity | Snow |
|---|---|---|---|---|---|---|---|
| 1778039377 | 14.44° C | 66% | 1006.8 hPa | 0 mm | - | 18 W/m² | - |
| 1778039078 | 13.89° C | 69% | 1006.4 hPa | 0 mm | - | 15 W/m² | - |
| 1778038777 | 13.33° C | 72% | 1006.4 hPa | 0 mm | - | 12 W/m² | - |
| 1778038478 | 12.22° C | 74% | 1006.4 hPa | 0 mm | - | 11 W/m² | - |
| 1778038177 | 11.67° C | 77% | 1006.4 hPa | 0 mm | - | 9 W/m² | - |
| 1778037877 | 11.11° C | 77% | 1006.4 hPa | 0 mm | - | 7 W/m² | - |
| 1778037577 | 10.56° C | 80% | 1006.4 hPa | 0 mm | - | 5 W/m² | - |
| 1778037278 | 9.44° C | 84% | 1006.4 hPa | 0 mm | - | 4 W/m² | - |
| 1778036977 | 8.89° C | 88% | 1006.8 hPa | 0 mm | - | 3 W/m² | - |
| 1778036677 | 8.33° C | 91% | 1006.8 hPa | 0 mm | - | 1 W/m² | - |
| 1778036377 | 8.33° C | 92% | 1006.8 hPa | 0 mm | - | 1 W/m² | - |
| 1778036077 | 8.33° C | 93% | 1006.8 hPa | 0 mm | - | 0 W/m² | - |
| 1778035778 | 8.33° C | 93% | 1006.8 hPa | 0 mm | - | 0 W/m² | - |
| 1778035478 | 8.33° C | 93% | 1006.8 hPa | 0 mm | - | 0 W/m² | - |
| 1778035178 | 8.33° C | 93% | 1006.8 hPa | 0 mm | - | 0 W/m² | - |
| 1778034878 | 7.78° C | 93% | 1006.4 hPa | 0 mm | - | 0 W/m² | - |
| 1778034577 | 8.33° C | 95% | 1006.4 hPa | 0 mm | - | 0 W/m² | - |
| 1778034277 | 7.78° C | 94% | 1006.4 hPa | 0 mm | - | 0 W/m² | - |
| 1778033977 | 7.78° C | 93% | 1006.4 hPa | 0 mm | - | 0 W/m² | - |
| 1778033677 | 7.78° C | 93% | 1006.4 hPa | 0 mm | - | 0 W/m² | - |
| 1778033378 | 7.78° C | 94% | 1006.4 hPa | 0 mm | - | 0 W/m² | - |
| 1778033077 | 8.33° C | 93% | 1006.4 hPa | 0 mm | - | 0 W/m² | - |
| 1778032777 | 8.33° C | 94% | 1006.4 hPa | 0 mm | - | 0 W/m² | - |
| 1778032477 | 8.33° C | 94% | 1006.4 hPa | 0 mm | - | 0 W/m² | - |
| 1778032177 | 8.33° C | 93% | 1006.4 hPa | 0 mm | - | 0 W/m² | - |
* Rain latest hour (hover to see other rain measurements)
** Current wind speed in m/s (hover to see current wind gust speed)